Hollister, Florida
Current Conditions -  °F | °C
As of 9:53 AM on Friday 24 Oct 2014 (Local Time) from KGNV Reporting Station
Clear Clear  
Wind Chill: 63°   Ceiling: Unl
Heat Index: 63°   Visibility: 10mi
Dew Point: 50°   Wind: 6mph
Humidity: 63%   Direction: 20°NNE
Pressure: 30.05"   Gusts: NA
Location:  29.62°N, 81.81°W
Report Text: KGNV 241353Z 02005KT 10SM CLR 17/10 A3005 RMK AO2 SLP175 T01720100
Loading
Personal Weather Stations






























Interactive Weather Map New forecast layout! Learn more

10-Day Weather Forecast

Advertisements
Track Severe Weather on mobile